sensor_id;sensor_type;location;lat;lon;timestamp;pressure;altitude;pressure_sealevel;temperature;humidity
39793;BME280;26080;42.264;24.536;2022-10-16T00:00:42;100004.50;;;10.20;100.00
39793;BME280;26080;42.264;24.536;2022-10-16T00:03:09;100032.78;;;10.35;100.00
39793;BME280;26080;42.264;24.536;2022-10-16T00:05:40;100034.50;;;10.36;100.00
39793;BME280;26080;42.264;24.536;2022-10-16T00:08:06;100022.53;;;10.29;100.00
39793;BME280;26080;42.264;24.536;2022-10-16T00:10:31;100029.88;;;10.18;100.00
39793;BME280;26080;42.264;24.536;2022-10-16T00:12:57;100024.81;;;10.12;100.00
39793;BME280;26080;42.264;24.536;2022-10-16T00:15:22;100021.63;;;10.04;100.00
39793;BME280;26080;42.264;24.536;2022-10-16T00:17:48;100031.09;;;10.08;100.00
39793;BME280;26080;42.264;24.536;2022-10-16T00:20:13;100020.63;;;10.08;100.00
39793;BME280;26080;42.264;24.536;2022-10-16T00:22:38;100028.06;;;9.94;100.00
39793;BME280;26080;42.264;24.536;2022-10-16T00:25:05;99996.56;;;9.70;100.00
39793;BME280;26080;42.264;24.536;2022-10-16T00:27:30;100022.22;;;9.86;100.00
39793;BME280;26080;42.264;24.536;2022-10-16T00:29:56;100022.16;;;9.89;100.00
39793;BME280;26080;42.264;24.536;2022-10-16T00:32:21;100026.75;;;9.80;100.00
39793;BME280;26080;42.264;24.536;2022-10-16T00:34:46;100027.78;;;9.76;100.00
39793;BME280;26080;42.264;24.536;2022-10-16T00:37:12;100031.88;;;9.84;100.00
39793;BME280;26080;42.264;24.536;2022-10-16T00:39:38;100039.16;;;9.75;100.00
39793;BME280;26080;42.264;24.536;2022-10-16T00:42:03;100035.47;;;9.81;100.00
39793;BME280;26080;42.264;24.536;2022-10-16T00:44:44;100040.34;;;9.65;100.00
39793;BME280;26080;42.264;24.536;2022-10-16T00:49:56;100066.44;;;9.67;100.00
39793;BME280;26080;42.264;24.536;2022-10-16T00:52:23;100063.56;;;9.48;100.00
39793;BME280;26080;42.264;24.536;2022-10-16T00:54:49;100066.75;;;9.28;100.00
39793;BME280;26080;42.264;24.536;2022-10-16T00:57:16;100068.56;;;9.26;100.00
39793;BME280;26080;42.264;24.536;2022-10-16T00:59:42;100074.75;;;9.24;100.00
39793;BME280;26080;42.264;24.536;2022-10-16T01:02:10;100055.13;;;9.09;100.00
39793;BME280;26080;42.264;24.536;2022-10-16T01:04:39;100057.19;;;8.98;100.00
39793;BME280;26080;42.264;24.536;2022-10-16T01:08:01;100081.56;;;8.98;100.00
39793;BME280;26080;42.264;24.536;2022-10-16T01:10:40;100086.00;;;8.96;100.00
39793;BME280;26080;42.264;24.536;2022-10-16T01:13:19;100086.28;;;8.85;100.00
39793;BME280;26080;42.264;24.536;2022-10-16T01:20:50;100083.84;;;9.10;100.00
39793;BME280;26080;42.264;24.536;2022-10-16T01:31:22;100084.00;;;8.73;100.00
39793;BME280;26080;42.264;24.536;2022-10-16T01:34:25;100080.63;;;8.70;100.00
39793;BME280;26080;42.264;24.536;2022-10-16T01:37:04;100083.75;;;8.51;100.00
39793;BME280;26080;42.264;24.536;2022-10-16T01:39:33;100094.41;;;8.42;100.00
39793;BME280;26080;42.264;24.536;2022-10-16T01:42:14;100054.19;;;8.15;100.00
39793;BME280;26080;42.264;24.536;2022-10-16T01:44:42;100097.91;;;8.41;100.00
39793;BME280;26080;42.264;24.536;2022-10-16T01:47:10;100092.53;;;8.47;100.00
39793;BME280;26080;42.264;24.536;2022-10-16T01:49:38;100072.81;;;8.36;100.00
39793;BME280;26080;42.264;24.536;2022-10-16T01:52:09;100081.22;;;8.47;100.00
39793;BME280;26080;42.264;24.536;2022-10-16T01:54:38;100082.09;;;8.47;100.00
39793;BME280;26080;42.264;24.536;2022-10-16T01:57:07;100082.97;;;8.46;100.00
39793;BME280;26080;42.264;24.536;2022-10-16T01:59:42;100080.31;;;8.48;100.00
39793;BME280;26080;42.264;24.536;2022-10-16T02:02:10;100085.13;;;8.65;100.00
39793;BME280;26080;42.264;24.536;2022-10-16T02:04:39;100088.53;;;8.67;100.00
39793;BME280;26080;42.264;24.536;2022-10-16T02:07:07;100099.22;;;8.57;100.00
39793;BME280;26080;42.264;24.536;2022-10-16T02:09:34;100089.59;;;8.59;100.00
39793;BME280;26080;42.264;24.536;2022-10-16T02:12:06;100101.94;;;8.54;100.00
39793;BME280;26080;42.264;24.536;2022-10-16T02:14:33;100094.91;;;8.56;100.00
39793;BME280;26080;42.264;24.536;2022-10-16T02:16:59;100089.59;;;8.59;100.00
39793;BME280;26080;42.264;24.536;2022-10-16T02:19:24;100102.06;;;8.48;100.00
39793;BME280;26080;42.264;24.536;2022-10-16T02:21:55;100100.50;;;8.43;100.00
39793;BME280;26080;42.264;24.536;2022-10-16T02:24:39;100099.72;;;8.39;100.00
39793;BME280;26080;42.264;24.536;2022-10-16T02:29:55;100091.53;;;7.82;100.00
39793;BME280;26080;42.264;24.536;2022-10-16T02:32:30;100089.91;;;7.76;100.00
39793;BME280;26080;42.264;24.536;2022-10-16T02:34:57;100120.59;;;7.65;100.00
39793;BME280;26080;42.264;24.536;2022-10-16T02:37:24;100122.78;;;7.45;100.00
39793;BME280;26080;42.264;24.536;2022-10-16T02:39:52;100126.44;;;7.36;100.00
39793;BME280;26080;42.264;24.536;2022-10-16T02:42:18;100128.19;;;7.35;100.00
39793;BME280;26080;42.264;24.536;2022-10-16T02:44:44;100133.31;;;7.38;100.00
39793;BME280;26080;42.264;24.536;2022-10-16T02:47:09;100132.09;;;7.15;100.00
39793;BME280;26080;42.264;24.536;2022-10-16T02:49:35;100136.53;;;7.09;100.00
39793;BME280;26080;42.264;24.536;2022-10-16T02:52:00;100094.41;;;6.89;100.00
39793;BME280;26080;42.264;24.536;2022-10-16T02:54:26;100133.88;;;7.11;100.00
39793;BME280;26080;42.264;24.536;2022-10-16T02:56:51;100134.72;;;7.15;100.00
39793;BME280;26080;42.264;24.536;2022-10-16T02:59:17;100099.69;;;6.84;100.00
39793;BME280;26080;42.264;24.536;2022-10-16T03:01:42;100114.19;;;6.99;100.00
39793;BME280;26080;42.264;24.536;2022-10-16T03:04:08;100134.59;;;7.19;100.00
39793;BME280;26080;42.264;24.536;2022-10-16T03:06:34;100136.34;;;7.19;100.00
39793;BME280;26080;42.264;24.536;2022-10-16T03:08:59;100143.19;;;7.24;100.00
39793;BME280;26080;42.264;24.536;2022-10-16T03:11:25;100143.31;;;7.18;100.00
39793;BME280;26080;42.264;24.536;2022-10-16T03:13:51;100122.69;;;7.07;100.00
39793;BME280;26080;42.264;24.536;2022-10-16T03:16:17;100151.13;;;7.18;100.00
39793;BME280;26080;42.264;24.536;2022-10-16T03:18:42;100152.84;;;7.19;100.00
39793;BME280;26080;42.264;24.536;2022-10-16T03:21:08;100158.94;;;7.18;100.00
39793;BME280;26080;42.264;24.536;2022-10-16T03:23:33;100167.78;;;7.09;100.00
39793;BME280;26080;42.264;24.536;2022-10-16T03:25:59;100156.94;;;6.88;100.00
39793;BME280;26080;42.264;24.536;2022-10-16T03:28:24;100163.09;;;6.82;100.00
39793;BME280;26080;42.264;24.536;2022-10-16T03:30:50;100160.50;;;6.82;100.00
39793;BME280;26080;42.264;24.536;2022-10-16T03:33:15;100169.88;;;6.91;100.00
39793;BME280;26080;42.264;24.536;2022-10-16T03:35:41;100151.72;;;6.88;100.00
39793;BME280;26080;42.264;24.536;2022-10-16T03:38:06;100166.28;;;6.99;100.00
39793;BME280;26080;42.264;24.536;2022-10-16T03:40:32;100135.56;;;6.69;100.00
39793;BME280;26080;42.264;24.536;2022-10-16T03:42:58;100159.72;;;6.77;100.00
39793;BME280;26080;42.264;24.536;2022-10-16T03:45:24;100133.28;;;6.52;100.00
39793;BME280;26080;42.264;24.536;2022-10-16T03:47:49;100153.66;;;6.76;100.00
39793;BME280;26080;42.264;24.536;2022-10-16T03:50:15;100158.81;;;6.79;100.00
39793;BME280;26080;42.264;24.536;2022-10-16T03:52:41;100143.34;;;6.70;100.00
39793;BME280;26080;42.264;24.536;2022-10-16T03:55:06;100120.94;;;6.63;100.00
39793;BME280;26080;42.264;24.536;2022-10-16T03:57:32;100158.56;;;6.93;100.00
39793;BME280;26080;42.264;24.536;2022-10-16T03:59:58;100157.66;;;6.94;100.00
39793;BME280;26080;42.264;24.536;2022-10-16T04:02:23;100164.34;;;7.07;100.00
39793;BME280;26080;42.264;24.536;2022-10-16T04:04:49;100164.44;;;7.03;100.00
39793;BME280;26080;42.264;24.536;2022-10-16T04:07:14;100119.84;;;6.75;100.00
39793;BME280;26080;42.264;24.536;2022-10-16T04:09:40;100143.19;;;6.79;100.00
39793;BME280;26080;42.264;24.536;2022-10-16T04:12:05;100170.88;;;6.83;100.00
39793;BME280;26080;42.264;24.536;2022-10-16T04:14:30;100164.94;;;6.77;100.00
39793;BME280;26080;42.264;24.536;2022-10-16T04:16:56;100145.25;;;6.62;100.00
39793;BME280;26080;42.264;24.536;2022-10-16T04:19:21;100164.94;;;6.77;100.00
39793;BME280;26080;42.264;24.536;2022-10-16T04:21:46;100162.31;;;6.78;100.00
39793;BME280;26080;42.264;24.536;2022-10-16T04:24:12;100166.59;;;6.81;100.00
39793;BME280;26080;42.264;24.536;2022-10-16T04:26:38;100146.06;;;6.64;100.00
39793;BME280;26080;42.264;24.536;2022-10-16T04:29:03;100172.75;;;6.77;100.00
39793;BME280;26080;42.264;24.536;2022-10-16T04:31:29;100172.88;;;6.69;100.00
39793;BME280;26080;42.264;24.536;2022-10-16T04:33:55;100175.44;;;6.71;100.00
39793;BME280;26080;42.264;24.536;2022-10-16T04:36:20;100181.34;;;6.80;100.00
39793;BME280;26080;42.264;24.536;2022-10-16T04:38:45;100178.00;;;6.74;100.00
39793;BME280;26080;42.264;24.536;2022-10-16T04:41:11;100186.09;;;6.59;100.00
39793;BME280;26080;42.264;24.536;2022-10-16T04:43:36;100164.75;;;6.37;100.00
39793;BME280;26080;42.264;24.536;2022-10-16T04:46:02;100194.28;;;6.36;100.00
39793;BME280;26080;42.264;24.536;2022-10-16T04:48:33;100188.41;;;6.23;100.00
39793;BME280;26080;42.264;24.536;2022-10-16T04:50:59;100198.63;;;6.34;100.00
39793;BME280;26080;42.264;24.536;2022-10-16T04:53:24;100166.59;;;6.32;100.00
39793;BME280;26080;42.264;24.536;2022-10-16T04:55:49;100201.94;;;6.45;100.00
39793;BME280;26080;42.264;24.536;2022-10-16T04:58:15;100171.94;;;6.22;100.00
39793;BME280;26080;42.264;24.536;2022-10-16T05:00:41;100197.66;;;6.39;100.00
39793;BME280;26080;42.264;24.536;2022-10-16T05:03:07;100198.31;;;6.53;100.00
39793;BME280;26080;42.264;24.536;2022-10-16T05:05:34;100152.34;;;6.52;100.00
39793;BME280;26080;42.264;24.536;2022-10-16T05:08:00;100200.69;;;6.67;100.00
39793;BME280;26080;42.264;24.536;2022-10-16T05:10:25;100206.16;;;6.50;100.00
39793;BME280;26080;42.264;24.536;2022-10-16T05:12:51;100212.41;;;6.40;100.00
39793;BME280;26080;42.264;24.536;2022-10-16T05:15:17;100182.25;;;6.27;100.00
39793;BME280;26080;42.264;24.536;2022-10-16T05:17:43;100215.81;;;6.44;100.00
39793;BME280;26080;42.264;24.536;2022-10-16T05:20:09;100215.66;;;6.53;100.00
39793;BME280;26080;42.264;24.536;2022-10-16T05:22:34;100219.94;;;6.57;100.00
39793;BME280;26080;42.264;24.536;2022-10-16T05:25:00;100226.00;;;6.58;100.00
39793;BME280;26080;42.264;24.536;2022-10-16T05:27:28;100226.88;;;6.58;100.00
39793;BME280;26080;42.264;24.536;2022-10-16T05:29:54;100232.94;;;6.57;100.00
39793;BME280;26080;42.264;24.536;2022-10-16T05:32:19;100215.88;;;6.39;100.00
39793;BME280;26080;42.264;24.536;2022-10-16T05:34:45;100240.84;;;6.51;100.00
39793;BME280;26080;42.264;24.536;2022-10-16T05:37:11;100247.34;;;6.79;100.00
39793;BME280;26080;42.264;24.536;2022-10-16T05:39:37;100247.28;;;6.82;100.00
39793;BME280;26080;42.264;24.536;2022-10-16T05:42:04;100250.09;;;6.72;100.00
39793;BME280;26080;42.264;24.536;2022-10-16T05:44:29;100248.38;;;6.68;100.00
39793;BME280;26080;42.264;24.536;2022-10-16T05:46:55;100253.47;;;6.75;100.00
39793;BME280;26080;42.264;24.536;2022-10-16T05:49:20;100251.84;;;6.68;100.00
39793;BME280;26080;42.264;24.536;2022-10-16T05:51:45;100262.75;;;6.92;100.00
39793;BME280;26080;42.264;24.536;2022-10-16T05:54:11;100266.13;;;6.97;100.00
39793;BME280;26080;42.264;24.536;2022-10-16T05:56:36;100255.84;;;6.89;100.00
39793;BME280;26080;42.264;24.536;2022-10-16T05:59:03;100267.94;;;6.93;100.00
39793;BME280;26080;42.264;24.536;2022-10-16T06:01:29;100241.91;;;6.92;100.00
39793;BME280;26080;42.264;24.536;2022-10-16T06:03:56;100271.88;;;7.16;100.00
39793;BME280;26080;42.264;24.536;2022-10-16T06:06:24;100274.41;;;7.20;100.00
39793;BME280;26080;42.264;24.536;2022-10-16T06:08:52;100270.00;;;7.22;100.00
39793;BME280;26080;42.264;24.536;2022-10-16T06:11:21;100279.22;;;7.40;100.00
39793;BME280;26080;42.264;24.536;2022-10-16T06:13:51;100283.31;;;7.53;100.00
39793;BME280;26080;42.264;24.536;2022-10-16T06:16:17;100232.41;;;7.35;100.00
39793;BME280;26080;42.264;24.536;2022-10-16T06:18:43;100278.63;;;7.72;100.00
39793;BME280;26080;42.264;24.536;2022-10-16T06:21:14;100279.25;;;7.85;100.00
39793;BME280;26080;42.264;24.536;2022-10-16T06:23:41;100288.56;;;7.96;100.00
39793;BME280;26080;42.264;24.536;2022-10-16T06:26:09;100283.09;;;8.09;100.00
39793;BME280;26080;42.264;24.536;2022-10-16T06:28:35;100258.81;;;8.03;100.00
39793;BME280;26080;42.264;24.536;2022-10-16T06:31:02;100269.97;;;8.12;100.00
39793;BME280;26080;42.264;24.536;2022-10-16T06:33:28;100297.25;;;8.39;100.00
39793;BME280;26080;42.264;24.536;2022-10-16T06:35:53;100289.09;;;8.52;100.00
39793;BME280;26080;42.264;24.536;2022-10-16T06:38:18;100288.84;;;8.61;100.00
39793;BME280;26080;42.264;24.536;2022-10-16T06:40:44;100286.84;;;8.73;100.00
39793;BME280;26080;42.264;24.536;2022-10-16T06:43:09;100290.00;;;8.87;100.00
39793;BME280;26080;42.264;24.536;2022-10-16T06:45:35;100292.97;;;9.07;100.00
39793;BME280;26080;42.264;24.536;2022-10-16T06:48:00;100298.78;;;9.18;100.00
39793;BME280;26080;42.264;24.536;2022-10-16T06:50:25;100295.91;;;9.28;100.00
39793;BME280;26080;42.264;24.536;2022-10-16T06:52:51;100296.72;;;9.30;100.00
39793;BME280;26080;42.264;24.536;2022-10-16T06:55:16;100301.91;;;9.33;100.00
39793;BME280;26080;42.264;24.536;2022-10-16T06:57:42;100302.41;;;9.47;100.00
39793;BME280;26080;42.264;24.536;2022-10-16T07:00:09;100310.19;;;9.48;100.00
39793;BME280;26080;42.264;24.536;2022-10-16T07:02:34;100307.13;;;9.65;100.00
39793;BME280;26080;42.264;24.536;2022-10-16T07:04:59;100313.03;;;9.72;100.00
39793;BME280;26080;42.264;24.536;2022-10-16T07:07:25;100312.81;;;9.79;100.00
39793;BME280;26080;42.264;24.536;2022-10-16T07:09:51;100313.44;;;9.89;100.00
39793;BME280;26080;42.264;24.536;2022-10-16T07:12:17;100289.28;;;9.79;100.00
39793;BME280;26080;42.264;24.536;2022-10-16T07:14:42;100325.13;;;10.07;100.00
39793;BME280;26080;42.264;24.536;2022-10-16T07:17:08;100323.00;;;10.21;100.00
39793;BME280;26080;42.264;24.536;2022-10-16T07:19:33;100324.53;;;10.28;100.00
39793;BME280;26080;42.264;24.536;2022-10-16T07:21:59;100315.47;;;10.38;100.00
39793;BME280;26080;42.264;24.536;2022-10-16T07:24:24;100310.19;;;10.42;100.00
39793;BME280;26080;42.264;24.536;2022-10-16T07:26:50;100302.00;;;10.51;100.00
39793;BME280;26080;42.264;24.536;2022-10-16T07:29:20;100314.28;;;10.77;100.00
39793;BME280;26080;42.264;24.536;2022-10-16T07:31:47;100319.25;;;10.86;100.00
39793;BME280;26080;42.264;24.536;2022-10-16T07:34:14;100319.78;;;10.95;100.00
39793;BME280;26080;42.264;24.536;2022-10-16T07:36:40;100324.78;;;11.03;100.00
39793;BME280;26080;42.264;24.536;2022-10-16T07:39:05;100304.63;;;11.05;100.00
39793;BME280;26080;42.264;24.536;2022-10-16T07:41:31;100293.28;;;11.05;100.00
39793;BME280;26080;42.264;24.536;2022-10-16T07:43:58;100325.22;;;11.42;100.00
39793;BME280;26080;42.264;24.536;2022-10-16T07:46:26;100324.41;;;11.40;100.00
39793;BME280;26080;42.264;24.536;2022-10-16T07:48:52;100324.69;;;11.57;100.00
39793;BME280;26080;42.264;24.536;2022-10-16T07:51:20;100307.88;;;11.38;100.00
39793;BME280;26080;42.264;24.536;2022-10-16T07:53:46;100330.97;;;11.53;100.00
39793;BME280;26080;42.264;24.536;2022-10-16T07:56:12;100326.41;;;11.58;100.00
39793;BME280;26080;42.264;24.536;2022-10-16T07:58:38;100330.72;;;11.60;100.00
39793;BME280;26080;42.264;24.536;2022-10-16T08:01:05;100332.69;;;11.79;100.00
39793;BME280;26080;42.264;24.536;2022-10-16T08:03:31;100309.63;;;11.88;100.00
39793;BME280;26080;42.264;24.536;2022-10-16T08:05:57;100337.09;;;12.26;100.00
39793;BME280;26080;42.264;24.536;2022-10-16T08:08:23;100337.63;;;12.35;100.00
39793;BME280;26080;42.264;24.536;2022-10-16T08:10:49;100335.66;;;12.40;100.00
39793;BME280;26080;42.264;24.536;2022-10-16T08:13:14;100335.25;;;12.28;100.00
39793;BME280;26080;42.264;24.536;2022-10-16T08:15:41;100332.69;;;12.26;100.00
39793;BME280;26080;42.264;24.536;2022-10-16T08:18:07;100331.97;;;12.23;100.00
39793;BME280;26080;42.264;24.536;2022-10-16T08:20:33;100338.09;;;12.45;100.00
39793;BME280;26080;42.264;24.536;2022-10-16T08:22:59;100329.81;;;12.56;100.00
39793;BME280;26080;42.264;24.536;2022-10-16T08:25:25;100312.25;;;12.56;100.00
39793;BME280;26080;42.264;24.536;2022-10-16T08:27:50;100341.31;;;12.75;100.00
39793;BME280;26080;42.264;24.536;2022-10-16T08:30:20;100331.59;;;12.77;100.00
39793;BME280;26080;42.264;24.536;2022-10-16T08:32:46;100337.53;;;12.82;100.00
39793;BME280;26080;42.264;24.536;2022-10-16T08:35:13;100343.28;;;12.92;100.00
39793;BME280;26080;42.264;24.536;2022-10-16T08:37:40;100336.59;;;13.05;100.00
39793;BME280;26080;42.264;24.536;2022-10-16T08:40:07;100333.97;;;13.05;100.00
39793;BME280;26080;42.264;24.536;2022-10-16T08:45:36;100328.00;;;13.44;100.00
39793;BME280;26080;42.264;24.536;2022-10-16T08:50:57;100325.88;;;13.72;100.00
39793;BME280;26080;42.264;24.536;2022-10-16T08:53:33;100327.44;;;13.76;100.00
39793;BME280;26080;42.264;24.536;2022-10-16T08:56:01;100314.59;;;13.69;100.00
39793;BME280;26080;42.264;24.536;2022-10-16T08:58:29;100329.28;;;13.74;100.00
39793;BME280;26080;42.264;24.536;2022-10-16T09:01:11;100330.59;;;13.84;100.00
39793;BME280;26080;42.264;24.536;2022-10-16T09:17:04;100333.59;;;13.96;100.00
39793;BME280;26080;42.264;24.536;2022-10-16T09:19:38;100334.25;;;14.01;100.00
39793;BME280;26080;42.264;24.536;2022-10-16T09:22:16;100327.59;;;14.12;100.00
39793;BME280;26080;42.264;24.536;2022-10-16T09:24:42;100322.09;;;14.17;100.00
39793;BME280;26080;42.264;24.536;2022-10-16T09:27:12;100320.25;;;14.19;100.00
39793;BME280;26080;42.264;24.536;2022-10-16T09:29:38;100303.72;;;14.34;100.00
39793;BME280;26080;42.264;24.536;2022-10-16T09:32:11;100320.28;;;14.57;100.00
39793;BME280;26080;42.264;24.536;2022-10-16T09:34:42;100297.47;;;14.56;100.00
39793;BME280;26080;42.264;24.536;2022-10-16T09:37:12;100311.41;;;14.76;100.00
39793;BME280;26080;42.264;24.536;2022-10-16T09:40:02;100311.19;;;14.81;100.00
39793;BME280;26080;42.264;24.536;2022-10-16T09:42:33;100311.03;;;14.84;100.00
39793;BME280;26080;42.264;24.536;2022-10-16T09:45:01;100307.53;;;14.84;100.00
39793;BME280;26080;42.264;24.536;2022-10-16T09:47:27;100302.03;;;14.88;100.00
39793;BME280;26080;42.264;24.536;2022-10-16T09:50:13;100314.69;;;14.99;100.00
39793;BME280;26080;42.264;24.536;2022-10-16T09:52:44;100280.00;;;14.89;100.00
39793;BME280;26080;42.264;24.536;2022-10-16T09:55:17;100302.13;;;15.21;100.00
39793;BME280;26080;42.264;24.536;2022-10-16T09:57:51;100305.94;;;15.33;100.00
39793;BME280;26080;42.264;24.536;2022-10-16T10:00:17;100307.41;;;15.56;99.85
39793;BME280;26080;42.264;24.536;2022-10-16T10:02:43;100296.75;;;15.75;96.36
39793;BME280;26080;42.264;24.536;2022-10-16T10:05:21;100279.72;;;15.64;97.25
39793;BME280;26080;42.264;24.536;2022-10-16T10:07:55;100297.38;;;15.80;95.95
39793;BME280;26080;42.264;24.536;2022-10-16T10:10:26;100293.56;;;15.85;95.07
39793;BME280;26080;42.264;24.536;2022-10-16T10:12:53;100291.09;;;15.98;92.84
39793;BME280;26080;42.264;24.536;2022-10-16T10:15:19;100283.44;;;15.93;91.68
39793;BME280;26080;42.264;24.536;2022-10-16T10:17:49;100271.91;;;15.79;93.21
39793;BME280;26080;42.264;24.536;2022-10-16T10:20:28;100269.13;;;15.97;90.48
39793;BME280;26080;42.264;24.536;2022-10-16T10:22:56;100257.34;;;16.03;88.32
39793;BME280;26080;42.264;24.536;2022-10-16T10:33:41;100247.72;;;16.02;87.27
39793;BME280;26080;42.264;24.536;2022-10-16T10:47:08;100244.00;;;16.38;83.08
39793;BME280;26080;42.264;24.536;2022-10-16T10:49:20;100235.19;;;16.53;80.97
39793;BME280;26080;42.264;24.536;2022-10-16T10:54:27;100222.44;;;16.45;81.96
39793;BME280;26080;42.264;24.536;2022-10-16T10:57:02;100223.03;;;16.35;82.17
39793;BME280;26080;42.264;24.536;2022-10-16T11:02:05;100216.34;;;16.43;79.82
39793;BME280;26080;42.264;24.536;2022-10-16T11:04:43;100219.84;;;16.44;81.70
39793;BME280;26080;42.264;24.536;2022-10-16T11:07:36;100222.81;;;16.53;81.05
39793;BME280;26080;42.264;24.536;2022-10-16T11:10:12;100207.28;;;16.63;79.80
39793;BME280;26080;42.264;24.536;2022-10-16T11:12:44;100211.91;;;16.75;78.08
39793;BME280;26080;42.264;24.536;2022-10-16T11:15:27;100198.75;;;16.74;82.54
39793;BME280;26080;42.264;24.536;2022-10-16T11:18:01;100209.53;;;16.85;80.27
39793;BME280;26080;42.264;24.536;2022-10-16T11:20:57;100199.88;;;17.00;80.30
39793;BME280;26080;42.264;24.536;2022-10-16T11:23:31;100192.69;;;17.02;77.54
39793;BME280;26080;42.264;24.536;2022-10-16T11:26:02;100200.16;;;17.09;79.36
39793;BME280;26080;42.264;24.536;2022-10-16T11:28:33;100198.00;;;17.16;76.48
39793;BME280;26080;42.264;24.536;2022-10-16T11:31:16;100188.38;;;17.15;74.82
39793;BME280;26080;42.264;24.536;2022-10-16T11:33:47;100187.31;;;17.17;77.28
39793;BME280;26080;42.264;24.536;2022-10-16T11:36:35;100184.50;;;17.21;77.83
39793;BME280;26080;42.264;24.536;2022-10-16T11:49:58;100175.78;;;17.18;76.18
39793;BME280;26080;42.264;24.536;2022-10-16T11:55:01;100173.25;;;17.17;71.13
39793;BME280;26080;42.264;24.536;2022-10-16T11:57:40;100173.50;;;17.12;72.16
39793;BME280;26080;42.264;24.536;2022-10-16T12:00:17;100177.94;;;17.12;71.62
39793;BME280;26080;42.264;24.536;2022-10-16T12:03:04;100166.53;;;17.26;66.04
39793;BME280;26080;42.264;24.536;2022-10-16T12:06:39;100169.75;;;17.16;70.43
39793;BME280;26080;42.264;24.536;2022-10-16T12:08:45;100167.19;;;17.15;70.05
39793;BME280;26080;42.264;24.536;2022-10-16T12:11:35;100176.25;;;17.25;68.72
39793;BME280;26080;42.264;24.536;2022-10-16T12:16:57;100179.69;;;17.41;70.89
39793;BME280;26080;42.264;24.536;2022-10-16T12:19:26;100182.16;;;17.44;68.46
39793;BME280;26080;42.264;24.536;2022-10-16T12:21:54;100173.34;;;17.58;68.64
39793;BME280;26080;42.264;24.536;2022-10-16T12:24:27;100176.00;;;17.58;67.21
39793;BME280;26080;42.264;24.536;2022-10-16T12:26:55;100185.06;;;17.54;67.97
39793;BME280;26080;42.264;24.536;2022-10-16T12:31:58;100173.25;;;17.45;65.47
39793;BME280;26080;42.264;24.536;2022-10-16T12:37:50;100173.81;;;17.51;67.40
39793;BME280;26080;42.264;24.536;2022-10-16T12:39:56;100173.72;;;17.52;68.12
39793;BME280;26080;42.264;24.536;2022-10-16T12:42:32;100175.16;;;17.43;64.51
39793;BME280;26080;42.264;24.536;2022-10-16T12:44:58;100166.47;;;17.41;66.11
39793;BME280;26080;42.264;24.536;2022-10-16T12:49:56;100173.59;;;17.68;61.78
39793;BME280;26080;42.264;24.536;2022-10-16T12:52:35;100137.34;;;17.27;63.03
39793;BME280;26080;42.264;24.536;2022-10-16T12:55:01;100152.53;;;17.52;63.76
39793;BME280;26080;42.264;24.536;2022-10-16T13:19:10;100181.59;;;17.82;61.99
39793;BME280;26080;42.264;24.536;2022-10-16T13:30:02;100170.03;;;17.83;60.22
39793;BME280;26080;42.264;24.536;2022-10-16T13:32:36;100178.94;;;17.82;62.76
39793;BME280;26080;42.264;24.536;2022-10-16T13:35:01;100190.66;;;17.78;63.17
39793;BME280;26080;42.264;24.536;2022-10-16T13:37:29;100191.13;;;17.85;62.91
39793;BME280;26080;42.264;24.536;2022-10-16T13:40:17;100193.59;;;17.88;63.58
39793;BME280;26080;42.264;24.536;2022-10-16T13:42:44;100187.44;;;17.87;65.73
39793;BME280;26080;42.264;24.536;2022-10-16T13:45:24;100184.25;;;17.82;66.01
39793;BME280;26080;42.264;24.536;2022-10-16T13:48:01;100187.06;;;17.79;64.60
39793;BME280;26080;42.264;24.536;2022-10-16T13:50:27;100191.59;;;17.77;63.65
39793;BME280;26080;42.264;24.536;2022-10-16T13:53:06;100187.16;;;17.77;65.10
39793;BME280;26080;42.264;24.536;2022-10-16T13:55:32;100189.16;;;17.74;65.10
39793;BME280;26080;42.264;24.536;2022-10-16T13:58:27;100190.00;;;17.74;65.38
39793;BME280;26080;42.264;24.536;2022-10-16T14:01:01;100189.91;;;17.76;65.12
39793;BME280;26080;42.264;24.536;2022-10-16T14:03:28;100188.50;;;17.70;63.98
39793;BME280;26080;42.264;24.536;2022-10-16T14:05:58;100194.66;;;17.71;63.00
39793;BME280;26080;42.264;24.536;2022-10-16T14:08:25;100190.41;;;17.68;64.26
39793;BME280;26080;42.264;24.536;2022-10-16T14:10:54;100190.44;;;17.67;65.48
39793;BME280;26080;42.264;24.536;2022-10-16T14:13:30;100160.31;;;17.41;64.68
39793;BME280;26080;42.264;24.536;2022-10-16T14:15:56;100193.78;;;17.56;63.93
39793;BME280;26080;42.264;24.536;2022-10-16T14:18:25;100195.66;;;17.54;66.92
39793;BME280;26080;42.264;24.536;2022-10-16T14:20:52;100195.47;;;17.57;65.25
39793;BME280;26080;42.264;24.536;2022-10-16T14:23:30;100200.94;;;17.54;65.85
39793;BME280;26080;42.264;24.536;2022-10-16T14:26:26;100204.19;;;17.59;65.36
39793;BME280;26080;42.264;24.536;2022-10-16T14:29:15;100205.03;;;17.45;65.33
39793;BME280;26080;42.264;24.536;2022-10-16T14:31:43;100210.44;;;17.44;65.45
39793;BME280;26080;42.264;24.536;2022-10-16T14:34:36;100210.63;;;17.41;66.30
39793;BME280;26080;42.264;24.536;2022-10-16T14:37:25;100198.50;;;17.37;65.85
39793;BME280;26080;42.264;24.536;2022-10-16T14:39:52;100198.03;;;17.30;66.87
39793;BME280;26080;42.264;24.536;2022-10-16T14:42:20;100177.59;;;17.18;66.50
39793;BME280;26080;42.264;24.536;2022-10-16T14:44:48;100168.50;;;17.08;66.89